createdAt,value
2023-03-10T00:02:27.130Z,18.37
2023-03-10T00:04:55.881Z,17.77
2023-03-10T00:07:24.548Z,17.93
2023-03-10T00:09:53.116Z,18.37
2023-03-10T00:12:22.644Z,18.70
2023-03-10T00:14:51.385Z,18.85
2023-03-10T00:17:19.543Z,18.40
2023-03-10T00:19:48.002Z,18.87
2023-03-10T00:22:16.458Z,18.67
2023-03-10T00:24:45.207Z,18.17
2023-03-10T00:27:13.373Z,18.57
2023-03-10T00:29:41.813Z,17.73
2023-03-10T00:32:10.155Z,17.85
2023-03-10T00:34:38.725Z,18.03
2023-03-10T00:37:07.181Z,17.87
2023-03-10T00:39:35.708Z,17.57
2023-03-10T00:42:05.136Z,18.93
2023-03-10T00:44:33.653Z,19.27
2023-03-10T00:47:02.175Z,17.83
2023-03-10T00:49:31.041Z,18.87
2023-03-10T00:51:59.516Z,17.23
2023-03-10T00:54:27.986Z,18.13
2023-03-10T00:56:57.625Z,17.27
2023-03-10T00:59:26.157Z,15.90
2023-03-10T01:01:54.738Z,16.73
2023-03-10T01:04:23.038Z,16.83
2023-03-10T01:06:51.636Z,17.47
2023-03-10T01:09:20.104Z,17.57
2023-03-10T01:11:49.027Z,18.07
2023-03-10T01:14:18.021Z,16.75
2023-03-10T01:16:46.508Z,18.07
2023-03-10T01:19:15.736Z,17.92
2023-03-10T01:21:44.603Z,19.87
2023-03-10T01:24:14.852Z,19.80
2023-03-10T01:26:44.008Z,16.40
2023-03-10T01:29:12.990Z,17.20
2023-03-10T01:31:42.020Z,16.63
2023-03-10T01:34:10.361Z,18.67
2023-03-10T01:36:40.357Z,17.80
2023-03-10T01:39:08.753Z,16.80
2023-03-10T01:41:40.999Z,16.20
2023-03-10T01:44:16.366Z,17.27
2023-03-10T01:46:49.965Z,15.65
2023-03-10T01:49:37.032Z,15.43
2023-03-10T01:52:10.150Z,18.07
2023-03-10T01:54:40.181Z,15.47
2023-03-10T01:57:09.177Z,15.47
2023-03-10T01:59:40.085Z,15.38
2023-03-10T02:02:09.007Z,14.90
2023-03-10T02:04:45.787Z,14.83
2023-03-10T02:07:14.740Z,16.03
2023-03-10T02:09:47.125Z,17.20
2023-03-10T02:12:15.645Z,14.17
2023-03-10T02:14:45.176Z,14.20
2023-03-10T02:17:16.553Z,13.73
2023-03-10T02:19:49.930Z,14.17
2023-03-10T02:22:18.374Z,15.53
2023-03-10T02:24:57.255Z,13.97
2023-03-10T02:27:29.986Z,15.77
2023-03-10T02:30:00.202Z,17.80
2023-03-10T02:32:32.068Z,17.33
2023-03-10T02:35:00.789Z,18.27
2023-03-10T02:37:30.795Z,17.10
2023-03-10T02:39:59.480Z,16.97
2023-03-10T02:42:29.483Z,16.30
2023-03-10T02:44:58.314Z,16.82
2023-03-10T02:47:26.871Z,15.97
2023-03-10T02:49:55.721Z,15.98
2023-03-10T02:52:31.466Z,14.77
2023-03-10T02:55:00.016Z,16.53
2023-03-10T02:57:28.549Z,14.67
2023-03-10T02:59:57.369Z,17.30
2023-03-10T03:02:26.087Z,15.53
2023-03-10T03:04:54.872Z,14.05
2023-03-10T03:07:23.293Z,15.47
2023-03-10T03:09:51.965Z,14.63
2023-03-10T03:12:20.676Z,14.40
2023-03-10T03:14:49.207Z,10.53
2023-03-10T03:17:18.002Z,7.92
2023-03-10T03:19:46.435Z,8.77
2023-03-10T03:22:14.677Z,5.50
2023-03-10T03:24:43.279Z,7.73
2023-03-10T03:27:11.656Z,5.23
2023-03-10T03:29:40.156Z,5.10
2023-03-10T03:32:08.718Z,4.57
2023-03-10T03:34:38.592Z,3.70
2023-03-10T03:37:07.412Z,3.63
2023-03-10T03:39:37.308Z,2.57
2023-03-10T03:42:07.597Z,2.17
2023-03-10T03:44:40.438Z,1.93
2023-03-10T03:47:10.375Z,2.17
2023-03-10T03:49:39.453Z,2.10
2023-03-10T03:52:08.725Z,1.70
2023-03-10T03:54:37.654Z,1.42
2023-03-10T03:57:05.882Z,1.40
2023-03-10T03:59:34.509Z,1.40
2023-03-10T04:02:03.143Z,1.30
2023-03-10T04:04:32.116Z,1.80
2023-03-10T04:07:01.193Z,1.50
2023-03-10T04:09:30.281Z,1.63
2023-03-10T04:11:58.903Z,1.43
2023-03-10T04:14:27.859Z,2.37
2023-03-10T04:16:56.744Z,1.92
2023-03-10T04:19:25.185Z,2.87
2023-03-10T04:21:55.320Z,2.73
2023-03-10T04:24:24.486Z,2.47
2023-03-10T04:26:53.470Z,2.30
2023-03-10T04:29:23.619Z,2.73
2023-03-10T04:32:04.808Z,4.17
2023-03-10T04:34:23.219Z,2.65
2023-03-10T04:36:51.936Z,1.40
2023-03-10T04:39:20.677Z,1.30
2023-03-10T04:41:49.117Z,1.20
2023-03-10T04:44:30.420Z,1.30
2023-03-10T04:46:49.442Z,1.85
2023-03-10T04:49:18.617Z,2.77
2023-03-10T04:51:47.704Z,1.70
2023-03-10T04:54:16.095Z,1.43
2023-03-10T04:56:44.544Z,1.33
2023-03-10T04:59:13.191Z,1.67
2023-03-10T05:01:42.134Z,1.07
2023-03-10T05:04:11.206Z,1.80
2023-03-10T05:06:39.804Z,1.00
2023-03-10T05:09:15.795Z,1.57
2023-03-10T05:11:45.176Z,1.42
2023-03-10T05:14:14.241Z,1.20
2023-03-10T05:16:43.208Z,0.83
2023-03-10T05:19:11.681Z,1.30
2023-03-10T05:21:40.236Z,0.80
2023-03-10T05:24:09.049Z,1.27
2023-03-10T05:26:37.434Z,0.70
2023-03-10T05:29:06.458Z,1.33
2023-03-10T05:31:39.422Z,0.43
2023-03-10T05:34:09.358Z,0.67
2023-03-10T05:36:38.028Z,0.87
2023-03-10T05:39:09.363Z,1.00
2023-03-10T05:41:39.884Z,0.97
2023-03-10T05:44:08.584Z,0.50
2023-03-10T05:46:37.201Z,1.10
2023-03-10T05:49:05.674Z,0.77
2023-03-10T05:51:34.775Z,1.20
2023-03-10T05:54:06.036Z,1.07
2023-03-10T05:56:34.569Z,0.53
2023-03-10T05:59:03.663Z,0.90
2023-03-10T06:01:33.949Z,0.70
2023-03-10T06:04:02.596Z,0.90
2023-03-10T06:06:31.378Z,1.42
2023-03-10T06:09:00.997Z,1.32
2023-03-10T06:11:29.807Z,0.87
2023-03-10T06:13:58.236Z,1.50
2023-03-10T06:16:26.817Z,1.80
2023-03-10T06:18:56.253Z,2.00
2023-03-10T06:21:25.354Z,2.33
2023-03-10T06:23:53.912Z,1.30
2023-03-10T06:26:22.788Z,1.10
2023-03-10T06:28:51.348Z,1.67
2023-03-10T06:31:24.497Z,1.00
2023-03-10T06:33:53.219Z,0.63
2023-03-10T06:36:23.457Z,1.10
2023-03-10T06:38:51.761Z,1.77
2023-03-10T06:41:20.726Z,1.30
2023-03-10T06:43:49.236Z,1.70
2023-03-10T06:46:18.142Z,1.40
2023-03-10T06:48:46.771Z,1.70
2023-03-10T06:51:16.960Z,1.10
2023-03-10T06:53:45.571Z,0.97
2023-03-10T06:56:16.047Z,2.37
2023-03-10T06:58:45.386Z,1.52
2023-03-10T07:01:24.419Z,1.93
2023-03-10T07:03:53.262Z,2.37
2023-03-10T07:06:22.043Z,2.20
2023-03-10T07:08:51.196Z,2.75
2023-03-10T07:11:19.529Z,2.30
2023-03-10T07:13:48.209Z,1.73
2023-03-10T07:16:17.112Z,1.83
2023-03-10T07:18:45.784Z,2.30
2023-03-10T07:21:15.766Z,4.00
2023-03-10T07:23:44.588Z,3.53
2023-03-10T07:26:14.572Z,3.10
2023-03-10T07:28:43.402Z,3.83
2023-03-10T07:31:12.592Z,2.60
2023-03-10T07:33:41.105Z,4.17
2023-03-10T07:36:11.477Z,2.70
2023-03-10T07:38:40.042Z,2.87
2023-03-10T07:41:10.272Z,2.53
2023-03-10T07:43:39.018Z,2.20
2023-03-10T07:46:08.715Z,2.17
2023-03-10T07:48:37.689Z,1.45
2023-03-10T07:51:06.333Z,1.27
2023-03-10T07:53:35.152Z,1.15
2023-03-10T07:56:06.324Z,1.17
2023-03-10T07:58:35.649Z,0.82
2023-03-10T08:01:05.272Z,1.17
2023-03-10T08:03:34.499Z,1.00
2023-03-10T08:06:04.654Z,0.93
2023-03-10T08:08:33.133Z,1.00
2023-03-10T08:11:03.723Z,0.63
2023-03-10T08:13:32.130Z,1.40
2023-03-10T08:16:01.177Z,1.23
2023-03-10T08:18:30.034Z,1.23
2023-03-10T08:20:58.487Z,1.13
2023-03-10T08:23:27.047Z,0.90
2023-03-10T08:25:55.657Z,0.77
2023-03-10T08:28:24.246Z,0.70
2023-03-10T08:31:04.224Z,0.90
2023-03-10T08:33:23.114Z,0.88
2023-03-10T08:35:51.895Z,1.07
2023-03-10T08:38:20.109Z,1.53
2023-03-10T08:40:48.545Z,0.77
2023-03-10T08:43:16.884Z,0.87
2023-03-10T08:45:45.357Z,0.80
2023-03-10T08:48:13.463Z,0.70
2023-03-10T08:50:41.955Z,1.57
2023-03-10T08:53:12.018Z,1.10
2023-03-10T08:55:40.541Z,0.90
2023-03-10T08:58:08.840Z,0.70
2023-03-10T09:00:37.646Z,0.90
2023-03-10T09:03:06.900Z,0.60
2023-03-10T09:05:39.697Z,0.80
2023-03-10T09:08:08.140Z,0.60
2023-03-10T09:10:37.466Z,0.82
2023-03-10T09:13:13.677Z,0.20
2023-03-10T09:15:38.161Z,0.60
2023-03-10T09:18:06.777Z,0.73
2023-03-10T09:20:35.768Z,0.60
2023-03-10T09:23:05.096Z,1.23
2023-03-10T09:25:33.545Z,0.60
2023-03-10T09:28:02.026Z,0.40
2023-03-10T09:30:30.838Z,0.73
2023-03-10T09:32:59.751Z,0.70
2023-03-10T09:35:28.199Z,1.00
2023-03-10T09:37:56.910Z,0.82
2023-03-10T09:40:25.971Z,0.50
2023-03-10T09:43:01.904Z,0.40
2023-03-10T09:45:32.024Z,0.30
2023-03-10T09:48:03.816Z,0.33
2023-03-10T09:50:42.550Z,0.87
2023-03-10T09:53:21.358Z,0.57
2023-03-10T09:55:50.142Z,0.53
2023-03-10T09:58:39.861Z,0.47
2023-03-10T10:01:09.632Z,0.70
2023-03-10T10:03:52.180Z,0.30
2023-03-10T10:06:09.236Z,0.50
2023-03-10T10:08:39.194Z,0.33
2023-03-10T10:11:08.970Z,0.30
2023-03-10T10:13:39.457Z,0.42
2023-03-10T10:16:24.654Z,0.70
2023-03-10T10:18:42.746Z,0.50
2023-03-10T10:21:12.491Z,0.50
2023-03-10T10:23:50.748Z,0.40
2023-03-10T10:26:20.669Z,0.77
2023-03-10T10:28:56.551Z,0.87
2023-03-10T10:31:26.595Z,0.50
2023-03-10T10:33:59.423Z,0.70
2023-03-10T10:36:29.314Z,0.70
2023-03-10T10:38:59.041Z,0.33
2023-03-10T10:41:31.936Z,0.60
2023-03-10T10:44:01.909Z,0.70
2023-03-10T10:46:30.739Z,0.37
2023-03-10T10:49:07.515Z,0.30
2023-03-10T10:51:37.840Z,0.40
2023-03-10T10:54:07.905Z,0.73
2023-03-10T10:56:36.379Z,0.57
2023-03-10T10:59:07.271Z,0.53
2023-03-10T11:01:52.279Z,0.30
2023-03-10T11:04:21.246Z,0.50
2023-03-10T11:06:50.374Z,0.50
2023-03-10T11:09:20.259Z,0.60
2023-03-10T11:11:50.251Z,0.53
2023-03-10T11:14:22.868Z,0.60
2023-03-10T11:16:59.877Z,0.47
2023-03-10T11:19:29.879Z,0.60
2023-03-10T11:21:59.849Z,0.67
2023-03-10T11:24:41.988Z,0.50
2023-03-10T11:27:26.806Z,0.40
2023-03-10T11:29:59.728Z,0.40
2023-03-10T11:32:41.576Z,0.60
2023-03-10T11:35:23.442Z,0.60
2023-03-10T11:37:53.672Z,0.67
2023-03-10T11:40:29.308Z,0.60
2023-03-10T11:43:02.564Z,0.35
2023-03-10T11:45:41.377Z,0.60
2023-03-10T11:48:11.348Z,0.50
2023-03-10T11:50:57.984Z,0.17
2023-03-10T11:53:27.961Z,0.57
2023-03-10T11:55:57.382Z,0.20
2023-03-10T11:58:27.664Z,0.23
2023-03-10T12:00:56.437Z,0.50
2023-03-10T12:03:41.528Z,0.70
2023-03-10T12:06:17.106Z,0.40
2023-03-10T12:08:46.820Z,0.30
2023-03-10T12:11:17.083Z,0.50
2023-03-10T12:13:50.313Z,0.37
2023-03-10T12:16:23.387Z,0.50
2023-03-10T12:18:53.320Z,0.40
2023-03-10T12:21:23.515Z,0.30
2023-03-10T12:23:53.427Z,0.30
2023-03-10T12:26:26.062Z,0.10
2023-03-10T12:28:56.117Z,0.30
2023-03-10T12:31:41.488Z,0.40
2023-03-10T12:34:14.329Z,0.40
2023-03-10T12:36:44.576Z,0.40
2023-03-10T12:39:26.800Z,0.65
2023-03-10T12:41:59.284Z,0.70
2023-03-10T12:44:38.109Z,0.30
2023-03-10T12:47:11.222Z,0.40
2023-03-10T12:49:41.326Z,0.57
2023-03-10T12:52:27.635Z,0.30
2023-03-10T12:54:58.281Z,0.43
2023-03-10T12:57:43.581Z,0.40
2023-03-10T13:00:25.543Z,0.37
2023-03-10T13:03:01.729Z,0.37
2023-03-10T13:05:33.353Z,0.50
2023-03-10T13:08:03.658Z,0.60
2023-03-10T13:10:33.744Z,0.50
2023-03-10T13:13:06.405Z,0.37
2023-03-10T13:15:35.324Z,0.30
2023-03-10T13:18:11.718Z,0.33
2023-03-10T13:20:40.479Z,0.30
2023-03-10T13:23:16.457Z,0.35
2023-03-10T13:25:55.165Z,0.67
2023-03-10T13:28:24.505Z,0.53
2023-03-10T13:30:53.033Z,0.43
2023-03-10T13:33:25.636Z,0.47
2023-03-10T13:35:52.884Z,0.33
2023-03-10T13:38:24.288Z,0.40
2023-03-10T13:40:56.965Z,0.20
2023-03-10T13:43:29.641Z,0.33
2023-03-10T13:45:59.003Z,0.67
2023-03-10T13:48:28.393Z,0.40
2023-03-10T13:51:10.435Z,0.75
2023-03-10T13:53:39.185Z,0.50
2023-03-10T13:56:12.171Z,0.20
2023-03-10T13:58:40.710Z,0.50
2023-03-10T14:01:10.608Z,0.63
2023-03-10T14:03:39.032Z,0.50
2023-03-10T14:06:13.696Z,0.87
2023-03-10T14:08:42.423Z,0.50
2023-03-10T14:11:29.054Z,0.40
2023-03-10T14:13:57.566Z,0.43
2023-03-10T14:16:27.598Z,0.40
2023-03-10T14:18:56.168Z,0.47
2023-03-10T14:21:26.286Z,0.50
2023-03-10T14:23:56.286Z,0.77
2023-03-10T14:26:24.902Z,0.73
2023-03-10T14:28:53.366Z,0.70
2023-03-10T14:31:23.036Z,0.50
2023-03-10T14:33:52.020Z,0.83
2023-03-10T14:36:20.544Z,0.62
2023-03-10T14:38:49.040Z,0.70
2023-03-10T14:41:18.843Z,0.70
2023-03-10T14:43:47.574Z,0.85
2023-03-10T14:46:15.911Z,0.70
2023-03-10T14:48:45.939Z,0.70
2023-03-10T14:51:25.685Z,0.70
2023-03-10T14:53:44.848Z,0.50
2023-03-10T14:56:17.503Z,0.40
2023-03-10T14:58:49.970Z,0.40
2023-03-10T15:01:19.204Z,0.57
2023-03-10T15:03:49.117Z,0.50
2023-03-10T15:06:18.854Z,0.70
2023-03-10T15:08:47.282Z,0.60
2023-03-10T15:11:23.984Z,0.43
2023-03-10T15:13:46.856Z,0.50
2023-03-10T15:16:15.381Z,0.77
2023-03-10T15:18:44.438Z,1.07
2023-03-10T15:21:16.191Z,0.60
2023-03-10T15:23:48.601Z,0.50
2023-03-10T15:26:16.960Z,0.50
2023-03-10T15:28:45.495Z,0.60
2023-03-10T15:31:13.917Z,0.80
2023-03-10T15:33:42.458Z,0.50
2023-03-10T15:36:11.455Z,0.93
2023-03-10T15:38:39.938Z,1.17
2023-03-10T15:41:08.462Z,0.87
2023-03-10T15:43:36.894Z,0.83
2023-03-10T15:46:07.110Z,0.65
2023-03-10T15:48:35.965Z,0.60
2023-03-10T15:51:08.682Z,0.83
2023-03-10T15:53:36.815Z,0.80
2023-03-10T15:56:06.669Z,0.80
2023-03-10T15:58:35.239Z,1.10
2023-03-10T16:01:08.552Z,1.03
2023-03-10T16:03:37.485Z,0.87
2023-03-10T16:06:06.368Z,0.90
2023-03-10T16:08:36.562Z,1.10
2023-03-10T16:11:06.484Z,1.40
2023-03-10T16:13:35.364Z,0.72
2023-03-10T16:16:06.380Z,1.00
2023-03-10T16:18:35.723Z,0.90
2023-03-10T16:21:04.301Z,0.70
2023-03-10T16:23:34.224Z,1.37
2023-03-10T16:26:04.539Z,0.97
2023-03-10T16:28:32.737Z,1.03
2023-03-10T16:31:02.536Z,0.62
2023-03-10T16:33:31.357Z,1.30
2023-03-10T16:36:02.627Z,0.87
2023-03-10T16:38:31.773Z,0.73
2023-03-10T16:41:00.716Z,0.90
2023-03-10T16:43:30.014Z,1.03
2023-03-10T16:46:12.310Z,1.07
2023-03-10T16:48:43.314Z,1.33
2023-03-10T16:51:29.922Z,1.37
2023-03-10T16:53:59.838Z,1.13
2023-03-10T16:56:28.930Z,1.10
2023-03-10T16:58:58.025Z,1.30
2023-03-10T17:01:27.027Z,1.53
2023-03-10T17:03:56.522Z,1.43
2023-03-10T17:06:26.813Z,1.90
2023-03-10T17:08:55.614Z,1.20
2023-03-10T17:11:28.707Z,1.23
2023-03-10T17:13:59.462Z,1.03
2023-03-10T17:16:28.939Z,1.72
2023-03-10T17:19:02.374Z,1.43
2023-03-10T17:21:37.214Z,1.87
2023-03-10T17:24:06.496Z,2.10
2023-03-10T17:26:35.604Z,2.10
2023-03-10T17:29:05.897Z,1.62
2023-03-10T17:31:34.682Z,1.70
2023-03-10T17:34:05.411Z,1.45
2023-03-10T17:36:34.229Z,1.27
2023-03-10T17:39:03.609Z,1.80
2023-03-10T17:41:32.704Z,1.40
2023-03-10T17:44:03.084Z,1.77
2023-03-10T17:46:31.721Z,1.73
2023-03-10T17:49:00.538Z,1.63
2023-03-10T17:51:30.085Z,1.73
2023-03-10T17:54:00.747Z,1.50
2023-03-10T17:56:29.095Z,1.80
2023-03-10T17:58:58.628Z,0.98
2023-03-10T18:01:28.604Z,1.50
2023-03-10T18:03:57.786Z,1.17
2023-03-10T18:06:27.716Z,1.33
2023-03-10T18:08:56.830Z,1.27
2023-03-10T18:11:26.279Z,0.97
2023-03-10T18:13:54.894Z,0.93
2023-03-10T18:16:27.464Z,0.80
2023-03-10T18:18:56.761Z,1.20
2023-03-10T18:21:25.498Z,1.67
2023-03-10T18:23:54.366Z,1.20
2023-03-10T18:26:24.293Z,0.93
2023-03-10T18:28:52.707Z,1.10
2023-03-10T18:31:23.044Z,0.88
2023-03-10T18:33:51.583Z,1.00
2023-03-10T18:36:20.643Z,1.40
2023-03-10T18:38:49.468Z,1.63
2023-03-10T18:41:18.423Z,1.17
2023-03-10T18:43:46.972Z,1.30
2023-03-10T18:46:15.338Z,1.00
2023-03-10T18:48:44.237Z,1.50
2023-03-10T18:51:13.498Z,0.80
2023-03-10T18:53:42.034Z,0.90
2023-03-10T18:56:10.601Z,0.97
2023-03-10T18:58:39.344Z,0.78
2023-03-10T19:01:11.802Z,0.87
2023-03-10T19:03:40.650Z,0.40
2023-03-10T19:06:09.505Z,0.80
2023-03-10T19:08:39.145Z,1.15
2023-03-10T19:11:07.814Z,0.93
2023-03-10T19:13:38.169Z,1.10
2023-03-10T19:16:08.404Z,1.17
2023-03-10T19:18:37.538Z,1.20
2023-03-10T19:21:06.630Z,1.20
2023-03-10T19:23:35.156Z,0.90
2023-03-10T19:26:04.145Z,1.20
2023-03-10T19:28:32.606Z,1.53
2023-03-10T19:31:01.450Z,1.67
2023-03-10T19:33:30.026Z,1.83
2023-03-10T19:36:02.705Z,2.20
2023-03-10T19:38:31.700Z,2.00
2023-03-10T19:41:00.910Z,1.30
2023-03-10T19:43:29.453Z,1.00
2023-03-10T19:46:01.881Z,0.70
2023-03-10T19:48:30.519Z,0.87
2023-03-10T19:51:00.228Z,0.98
2023-03-10T19:53:29.928Z,0.93
2023-03-10T19:56:00.311Z,1.30
2023-03-10T19:58:28.769Z,1.10
2023-03-10T20:01:00.504Z,1.30
2023-03-10T20:03:30.414Z,1.20
2023-03-10T20:05:58.844Z,1.00
2023-03-10T20:08:27.364Z,1.40
2023-03-10T20:10:57.449Z,0.83
2023-03-10T20:13:25.641Z,0.93
2023-03-10T20:15:54.089Z,1.13
2023-03-10T20:18:22.566Z,1.60
2023-03-10T20:20:51.414Z,1.80
2023-03-10T20:23:19.630Z,1.57
2023-03-10T20:25:48.580Z,1.57
2023-03-10T20:28:18.088Z,1.10
2023-03-10T20:30:47.289Z,1.63
2023-03-10T20:33:15.406Z,1.77
2023-03-10T20:35:44.173Z,1.55
2023-03-10T20:38:12.881Z,1.77
2023-03-10T20:40:41.354Z,1.30
2023-03-10T20:43:10.508Z,1.37
2023-03-10T20:45:39.791Z,1.10
2023-03-10T20:48:08.283Z,1.10
2023-03-10T20:50:37.205Z,1.17
2023-03-10T20:53:05.532Z,1.63
2023-03-10T20:55:33.997Z,1.10
2023-03-10T20:58:02.537Z,1.30
2023-03-10T21:00:32.580Z,0.80
2023-03-10T21:03:01.539Z,1.00
2023-03-10T21:05:30.143Z,0.80
2023-03-10T21:07:58.603Z,0.97
2023-03-10T21:10:27.713Z,0.40
2023-03-10T21:12:56.159Z,0.77
2023-03-10T21:15:25.267Z,0.67
2023-03-10T21:17:53.739Z,0.63
2023-03-10T21:20:23.131Z,0.80
2023-03-10T21:22:52.050Z,0.53
2023-03-10T21:25:23.117Z,0.80
2023-03-10T21:27:55.834Z,0.60
2023-03-10T21:30:24.050Z,0.80
2023-03-10T21:32:52.830Z,0.70
2023-03-10T21:35:21.132Z,0.60
2023-03-10T21:37:51.431Z,0.70
2023-03-10T21:40:20.266Z,0.60
2023-03-10T21:42:49.330Z,0.60
2023-03-10T21:45:19.465Z,1.20
2023-03-10T21:47:48.470Z,1.00
2023-03-10T21:50:17.696Z,0.70
2023-03-10T21:52:46.506Z,0.80
2023-03-10T21:55:19.756Z,0.90
2023-03-10T21:57:48.282Z,0.87
2023-03-10T22:00:18.866Z,0.80
2023-03-10T22:02:47.542Z,1.10
2023-03-10T22:05:16.629Z,1.00
2023-03-10T22:07:45.312Z,1.03
2023-03-10T22:10:14.028Z,1.35
2023-03-10T22:12:42.464Z,1.20
2023-03-10T22:15:12.286Z,1.53
2023-03-10T22:17:40.880Z,1.07
2023-03-10T22:20:09.962Z,1.50
2023-03-10T22:22:38.373Z,1.00
2023-03-10T22:25:07.577Z,1.10
2023-03-10T22:27:36.020Z,1.50
2023-03-10T22:30:05.982Z,0.90
2023-03-10T22:32:34.792Z,1.37
2023-03-10T22:35:03.409Z,1.20
2023-03-10T22:37:31.883Z,0.90
2023-03-10T22:40:00.999Z,1.43
2023-03-10T22:42:29.693Z,1.95
2023-03-10T22:44:58.144Z,1.33
2023-03-10T22:47:26.731Z,1.20
2023-03-10T22:49:55.267Z,0.83
2023-03-10T22:52:23.388Z,0.97
2023-03-10T22:54:52.174Z,0.70
2023-03-10T22:57:20.557Z,1.10
2023-03-10T22:59:49.036Z,0.73
2023-03-10T23:02:17.145Z,1.00
2023-03-10T23:04:45.622Z,1.20
2023-03-10T23:07:14.276Z,0.73
2023-03-10T23:09:42.770Z,0.83
2023-03-10T23:12:11.198Z,0.97
2023-03-10T23:14:39.721Z,0.73
2023-03-10T23:17:08.165Z,0.87
2023-03-10T23:19:36.977Z,0.60
2023-03-10T23:22:05.221Z,0.80
2023-03-10T23:24:33.959Z,0.50
2023-03-10T23:27:02.366Z,0.53
2023-03-10T23:29:30.790Z,0.60
2023-03-10T23:31:59.229Z,0.93
2023-03-10T23:34:27.651Z,0.67
2023-03-10T23:36:58.120Z,0.72
2023-03-10T23:39:26.999Z,0.40
2023-03-10T23:41:55.682Z,0.80
2023-03-10T23:44:24.043Z,0.53
2023-03-10T23:46:52.844Z,0.53
2023-03-10T23:49:22.164Z,1.10
2023-03-10T23:51:52.218Z,0.83
2023-03-10T23:54:22.304Z,0.80
2023-03-10T23:56:51.222Z,0.77
2023-03-10T23:59:19.509Z,0.40
